sensor_id;sensor_type;location;lat;lon;timestamp;P1;durP1;ratioP1;P2;durP2;ratioP2
72611;SDS011;60655;52.182;4.474;2023-09-07T00:01:54;12.38;;;8.18;;
72611;SDS011;60655;52.182;4.474;2023-09-07T00:03:55;15.05;;;9.95;;
72611;SDS011;60655;52.182;4.474;2023-09-07T00:05:56;17.77;;;9.82;;
72611;SDS011;60655;52.182;4.474;2023-09-07T00:07:57;12.45;;;8.18;;
72611;SDS011;60655;52.182;4.474;2023-09-07T00:09:58;15.77;;;9.85;;
72611;SDS011;60655;52.182;4.474;2023-09-07T00:12:00;14.98;;;8.32;;
72611;SDS011;60655;52.182;4.474;2023-09-07T00:14:01;16.33;;;9.60;;
72611;SDS011;60655;52.182;4.474;2023-09-07T00:16:02;14.55;;;9.23;;
72611;SDS011;60655;52.182;4.474;2023-09-07T00:18:05;14.07;;;9.13;;
72611;SDS011;60655;52.182;4.474;2023-09-07T00:20:06;12.65;;;9.00;;
72611;SDS011;60655;52.182;4.474;2023-09-07T00:22:17;14.50;;;8.57;;
72611;SDS011;60655;52.182;4.474;2023-09-07T00:24:18;13.60;;;8.77;;
72611;SDS011;60655;52.182;4.474;2023-09-07T00:26:19;15.52;;;9.07;;
72611;SDS011;60655;52.182;4.474;2023-09-07T00:28:20;14.30;;;8.55;;
72611;SDS011;60655;52.182;4.474;2023-09-07T00:30:21;14.02;;;9.90;;
72611;SDS011;60655;52.182;4.474;2023-09-07T00:32:22;15.48;;;8.40;;
72611;SDS011;60655;52.182;4.474;2023-09-07T00:34:23;14.35;;;8.80;;
72611;SDS011;60655;52.182;4.474;2023-09-07T00:36:24;13.73;;;9.00;;
72611;SDS011;60655;52.182;4.474;2023-09-07T00:38:25;15.75;;;9.70;;
72611;SDS011;60655;52.182;4.474;2023-09-07T00:40:26;14.88;;;9.05;;
72611;SDS011;60655;52.182;4.474;2023-09-07T00:42:27;14.95;;;9.43;;
72611;SDS011;60655;52.182;4.474;2023-09-07T00:44:28;13.07;;;8.20;;
72611;SDS011;60655;52.182;4.474;2023-09-07T00:46:29;17.35;;;9.60;;
72611;SDS011;60655;52.182;4.474;2023-09-07T00:48:30;13.10;;;9.27;;
72611;SDS011;60655;52.182;4.474;2023-09-07T00:50:31;14.57;;;9.40;;
72611;SDS011;60655;52.182;4.474;2023-09-07T00:52:32;13.82;;;8.70;;
72611;SDS011;60655;52.182;4.474;2023-09-07T00:54:34;16.10;;;9.27;;
72611;SDS011;60655;52.182;4.474;2023-09-07T00:56:37;13.13;;;8.30;;
72611;SDS011;60655;52.182;4.474;2023-09-07T00:58:38;14.18;;;8.82;;
72611;SDS011;60655;52.182;4.474;2023-09-07T01:00:39;16.02;;;9.43;;
72611;SDS011;60655;52.182;4.474;2023-09-07T01:02:40;14.02;;;8.27;;
72611;SDS011;60655;52.182;4.474;2023-09-07T01:04:45;12.55;;;7.75;;
72611;SDS011;60655;52.182;4.474;2023-09-07T01:06:51;13.80;;;8.65;;
72611;SDS011;60655;52.182;4.474;2023-09-07T01:08:57;14.93;;;8.45;;
72611;SDS011;60655;52.182;4.474;2023-09-07T01:11:14;14.52;;;9.50;;
72611;SDS011;60655;52.182;4.474;2023-09-07T01:13:23;15.88;;;9.48;;
72611;SDS011;60655;52.182;4.474;2023-09-07T01:15:24;14.35;;;8.77;;
72611;SDS011;60655;52.182;4.474;2023-09-07T01:17:25;13.75;;;9.18;;
72611;SDS011;60655;52.182;4.474;2023-09-07T01:19:28;15.32;;;8.82;;
72611;SDS011;60655;52.182;4.474;2023-09-07T01:21:34;15.52;;;8.73;;
72611;SDS011;60655;52.182;4.474;2023-09-07T01:23:36;15.40;;;8.48;;
72611;SDS011;60655;52.182;4.474;2023-09-07T01:25:39;14.65;;;8.10;;
72611;SDS011;60655;52.182;4.474;2023-09-07T01:27:41;14.30;;;8.40;;
72611;SDS011;60655;52.182;4.474;2023-09-07T01:29:42;13.63;;;8.13;;
72611;SDS011;60655;52.182;4.474;2023-09-07T01:31:43;15.02;;;9.50;;
72611;SDS011;60655;52.182;4.474;2023-09-07T01:33:44;13.88;;;8.02;;
72611;SDS011;60655;52.182;4.474;2023-09-07T01:35:45;15.02;;;8.40;;
72611;SDS011;60655;52.182;4.474;2023-09-07T01:37:47;15.90;;;8.68;;
72611;SDS011;60655;52.182;4.474;2023-09-07T01:39:48;14.27;;;8.48;;
72611;SDS011;60655;52.182;4.474;2023-09-07T01:41:50;14.75;;;8.73;;
72611;SDS011;60655;52.182;4.474;2023-09-07T01:43:51;12.32;;;7.63;;
72611;SDS011;60655;52.182;4.474;2023-09-07T01:45:52;14.57;;;8.27;;
72611;SDS011;60655;52.182;4.474;2023-09-07T01:47:53;12.88;;;8.85;;
72611;SDS011;60655;52.182;4.474;2023-09-07T01:49:54;16.30;;;9.48;;
72611;SDS011;60655;52.182;4.474;2023-09-07T01:51:55;12.90;;;9.00;;
72611;SDS011;60655;52.182;4.474;2023-09-07T01:53:56;13.80;;;8.75;;
72611;SDS011;60655;52.182;4.474;2023-09-07T01:55:57;16.20;;;8.75;;
72611;SDS011;60655;52.182;4.474;2023-09-07T01:57:59;13.43;;;8.55;;
72611;SDS011;60655;52.182;4.474;2023-09-07T02:00:00;16.10;;;9.35;;
72611;SDS011;60655;52.182;4.474;2023-09-07T02:02:01;15.23;;;9.95;;
72611;SDS011;60655;52.182;4.474;2023-09-07T02:04:03;14.35;;;9.13;;
72611;SDS011;60655;52.182;4.474;2023-09-07T02:06:04;16.60;;;9.98;;
72611;SDS011;60655;52.182;4.474;2023-09-07T02:08:05;15.23;;;9.55;;
72611;SDS011;60655;52.182;4.474;2023-09-07T02:10:06;16.63;;;9.35;;
72611;SDS011;60655;52.182;4.474;2023-09-07T02:12:07;16.05;;;9.13;;
72611;SDS011;60655;52.182;4.474;2023-09-07T02:14:08;17.45;;;8.85;;
72611;SDS011;60655;52.182;4.474;2023-09-07T02:16:09;15.80;;;9.50;;
72611;SDS011;60655;52.182;4.474;2023-09-07T02:18:10;13.88;;;9.25;;
72611;SDS011;60655;52.182;4.474;2023-09-07T02:20:11;12.55;;;8.52;;
72611;SDS011;60655;52.182;4.474;2023-09-07T02:22:12;14.30;;;9.48;;
72611;SDS011;60655;52.182;4.474;2023-09-07T02:24:13;12.48;;;8.57;;
72611;SDS011;60655;52.182;4.474;2023-09-07T02:26:14;15.77;;;8.95;;
72611;SDS011;60655;52.182;4.474;2023-09-07T02:28:15;13.80;;;8.73;;
72611;SDS011;60655;52.182;4.474;2023-09-07T02:30:16;12.98;;;9.10;;
72611;SDS011;60655;52.182;4.474;2023-09-07T02:32:17;13.52;;;9.43;;
72611;SDS011;60655;52.182;4.474;2023-09-07T02:34:19;15.02;;;8.63;;
72611;SDS011;60655;52.182;4.474;2023-09-07T02:36:20;14.07;;;8.77;;
72611;SDS011;60655;52.182;4.474;2023-09-07T02:38:21;15.63;;;8.88;;
72611;SDS011;60655;52.182;4.474;2023-09-07T02:40:22;16.60;;;9.85;;
72611;SDS011;60655;52.182;4.474;2023-09-07T02:42:24;16.27;;;8.73;;
72611;SDS011;60655;52.182;4.474;2023-09-07T02:44:25;15.15;;;9.50;;
72611;SDS011;60655;52.182;4.474;2023-09-07T02:46:26;14.00;;;8.52;;
72611;SDS011;60655;52.182;4.474;2023-09-07T02:48:27;14.98;;;9.82;;
72611;SDS011;60655;52.182;4.474;2023-09-07T02:50:32;15.25;;;9.55;;
72611;SDS011;60655;52.182;4.474;2023-09-07T02:52:34;15.63;;;9.23;;
72611;SDS011;60655;52.182;4.474;2023-09-07T02:54:35;14.00;;;8.88;;
72611;SDS011;60655;52.182;4.474;2023-09-07T02:56:36;15.93;;;9.02;;
72611;SDS011;60655;52.182;4.474;2023-09-07T02:58:37;12.40;;;8.25;;
72611;SDS011;60655;52.182;4.474;2023-09-07T03:00:41;16.58;;;8.35;;
72611;SDS011;60655;52.182;4.474;2023-09-07T03:02:44;14.27;;;9.15;;
72611;SDS011;60655;52.182;4.474;2023-09-07T03:04:45;14.95;;;9.18;;
72611;SDS011;60655;52.182;4.474;2023-09-07T03:06:46;14.93;;;9.55;;
72611;SDS011;60655;52.182;4.474;2023-09-07T03:08:47;14.18;;;9.23;;
72611;SDS011;60655;52.182;4.474;2023-09-07T03:10:48;15.07;;;9.70;;
72611;SDS011;60655;52.182;4.474;2023-09-07T03:12:49;14.30;;;9.48;;
72611;SDS011;60655;52.182;4.474;2023-09-07T03:14:50;16.98;;;8.50;;
72611;SDS011;60655;52.182;4.474;2023-09-07T03:16:51;14.35;;;9.88;;
72611;SDS011;60655;52.182;4.474;2023-09-07T03:18:52;18.88;;;9.98;;
72611;SDS011;60655;52.182;4.474;2023-09-07T03:20:54;14.68;;;8.95;;
72611;SDS011;60655;52.182;4.474;2023-09-07T03:22:56;15.10;;;9.00;;
72611;SDS011;60655;52.182;4.474;2023-09-07T03:24:57;15.85;;;10.02;;
72611;SDS011;60655;52.182;4.474;2023-09-07T03:26:58;15.65;;;10.13;;
72611;SDS011;60655;52.182;4.474;2023-09-07T03:28:59;15.48;;;10.18;;
72611;SDS011;60655;52.182;4.474;2023-09-07T03:31:00;15.60;;;10.05;;
72611;SDS011;60655;52.182;4.474;2023-09-07T03:33:01;17.30;;;10.15;;
72611;SDS011;60655;52.182;4.474;2023-09-07T03:35:04;16.25;;;9.48;;
72611;SDS011;60655;52.182;4.474;2023-09-07T03:37:09;16.65;;;10.68;;
72611;SDS011;60655;52.182;4.474;2023-09-07T03:39:12;17.50;;;9.55;;
72611;SDS011;60655;52.182;4.474;2023-09-07T03:41:13;18.63;;;9.75;;
72611;SDS011;60655;52.182;4.474;2023-09-07T03:43:14;15.73;;;10.15;;
72611;SDS011;60655;52.182;4.474;2023-09-07T03:45:14;15.98;;;9.90;;
72611;SDS011;60655;52.182;4.474;2023-09-07T03:47:16;17.27;;;11.10;;
72611;SDS011;60655;52.182;4.474;2023-09-07T03:49:18;16.63;;;10.50;;
72611;SDS011;60655;52.182;4.474;2023-09-07T03:51:19;14.82;;;9.30;;
72611;SDS011;60655;52.182;4.474;2023-09-07T03:53:20;15.00;;;9.95;;
72611;SDS011;60655;52.182;4.474;2023-09-07T03:55:21;16.00;;;10.77;;
72611;SDS011;60655;52.182;4.474;2023-09-07T03:57:23;14.23;;;9.50;;
72611;SDS011;60655;52.182;4.474;2023-09-07T03:59:24;16.35;;;9.43;;
72611;SDS011;60655;52.182;4.474;2023-09-07T04:01:28;17.33;;;10.95;;
72611;SDS011;60655;52.182;4.474;2023-09-07T04:03:29;15.73;;;9.27;;
72611;SDS011;60655;52.182;4.474;2023-09-07T04:05:30;15.32;;;9.70;;
72611;SDS011;60655;52.182;4.474;2023-09-07T04:07:31;17.65;;;9.90;;
72611;SDS011;60655;52.182;4.474;2023-09-07T04:09:33;15.93;;;9.85;;
72611;SDS011;60655;52.182;4.474;2023-09-07T04:11:34;14.32;;;9.57;;
72611;SDS011;60655;52.182;4.474;2023-09-07T04:13:35;16.80;;;10.93;;
72611;SDS011;60655;52.182;4.474;2023-09-07T04:15:42;14.57;;;9.82;;
72611;SDS011;60655;52.182;4.474;2023-09-07T04:17:45;13.35;;;8.82;;
72611;SDS011;60655;52.182;4.474;2023-09-07T04:19:46;14.75;;;9.30;;
72611;SDS011;60655;52.182;4.474;2023-09-07T04:21:47;16.88;;;10.45;;
72611;SDS011;60655;52.182;4.474;2023-09-07T04:23:48;17.25;;;10.10;;
72611;SDS011;60655;52.182;4.474;2023-09-07T04:25:49;15.30;;;10.48;;
72611;SDS011;60655;52.182;4.474;2023-09-07T04:27:50;17.30;;;9.73;;
72611;SDS011;60655;52.182;4.474;2023-09-07T04:29:50;19.13;;;9.52;;
72611;SDS011;60655;52.182;4.474;2023-09-07T04:31:51;17.02;;;10.00;;
72611;SDS011;60655;52.182;4.474;2023-09-07T04:33:53;15.98;;;10.38;;
72611;SDS011;60655;52.182;4.474;2023-09-07T04:35:54;18.75;;;10.18;;
72611;SDS011;60655;52.182;4.474;2023-09-07T04:37:55;16.10;;;10.00;;
72611;SDS011;60655;52.182;4.474;2023-09-07T04:39:56;19.88;;;10.85;;
72611;SDS011;60655;52.182;4.474;2023-09-07T04:41:57;18.05;;;10.98;;
72611;SDS011;60655;52.182;4.474;2023-09-07T04:43:58;16.77;;;10.10;;
72611;SDS011;60655;52.182;4.474;2023-09-07T04:45:59;14.07;;;9.43;;
72611;SDS011;60655;52.182;4.474;2023-09-07T04:48:00;15.60;;;11.02;;
72611;SDS011;60655;52.182;4.474;2023-09-07T04:50:01;15.45;;;9.82;;
72611;SDS011;60655;52.182;4.474;2023-09-07T04:52:02;17.27;;;10.40;;
72611;SDS011;60655;52.182;4.474;2023-09-07T04:54:03;18.63;;;11.10;;
72611;SDS011;60655;52.182;4.474;2023-09-07T04:56:05;20.58;;;10.23;;
72611;SDS011;60655;52.182;4.474;2023-09-07T04:58:06;17.13;;;10.48;;
72611;SDS011;60655;52.182;4.474;2023-09-07T05:00:08;23.42;;;11.10;;
72611;SDS011;60655;52.182;4.474;2023-09-07T05:02:11;19.23;;;10.10;;
72611;SDS011;60655;52.182;4.474;2023-09-07T05:04:12;19.95;;;10.45;;
72611;SDS011;60655;52.182;4.474;2023-09-07T05:06:13;16.48;;;10.43;;
72611;SDS011;60655;52.182;4.474;2023-09-07T05:08:14;19.40;;;11.75;;
72611;SDS011;60655;52.182;4.474;2023-09-07T05:10:16;21.67;;;12.23;;
72611;SDS011;60655;52.182;4.474;2023-09-07T05:12:17;17.58;;;10.75;;
72611;SDS011;60655;52.182;4.474;2023-09-07T05:14:19;16.85;;;10.05;;
72611;SDS011;60655;52.182;4.474;2023-09-07T05:16:20;17.88;;;10.52;;
72611;SDS011;60655;52.182;4.474;2023-09-07T05:18:21;15.55;;;10.38;;
72611;SDS011;60655;52.182;4.474;2023-09-07T05:20:22;17.27;;;11.68;;
72611;SDS011;60655;52.182;4.474;2023-09-07T05:22:23;14.90;;;10.25;;
72611;SDS011;60655;52.182;4.474;2023-09-07T05:24:26;19.00;;;10.85;;
72611;SDS011;60655;52.182;4.474;2023-09-07T05:26:27;17.35;;;11.23;;
72611;SDS011;60655;52.182;4.474;2023-09-07T05:28:28;18.25;;;10.85;;
72611;SDS011;60655;52.182;4.474;2023-09-07T05:30:29;19.48;;;12.18;;
72611;SDS011;60655;52.182;4.474;2023-09-07T05:32:30;16.30;;;9.82;;
72611;SDS011;60655;52.182;4.474;2023-09-07T05:34:31;21.50;;;11.70;;
72611;SDS011;60655;52.182;4.474;2023-09-07T05:36:32;15.65;;;10.75;;
72611;SDS011;60655;52.182;4.474;2023-09-07T05:38:33;19.90;;;10.65;;
72611;SDS011;60655;52.182;4.474;2023-09-07T05:40:38;20.02;;;12.48;;
72611;SDS011;60655;52.182;4.474;2023-09-07T05:42:40;19.08;;;12.15;;
72611;SDS011;60655;52.182;4.474;2023-09-07T05:44:41;18.10;;;11.10;;
72611;SDS011;60655;52.182;4.474;2023-09-07T05:46:42;20.08;;;11.45;;
72611;SDS011;60655;52.182;4.474;2023-09-07T05:48:43;18.05;;;11.23;;
72611;SDS011;60655;52.182;4.474;2023-09-07T05:50:44;20.55;;;11.93;;
72611;SDS011;60655;52.182;4.474;2023-09-07T05:52:46;18.63;;;11.38;;
72611;SDS011;60655;52.182;4.474;2023-09-07T05:54:47;19.20;;;11.15;;
72611;SDS011;60655;52.182;4.474;2023-09-07T05:56:48;16.98;;;10.02;;
72611;SDS011;60655;52.182;4.474;2023-09-07T05:58:49;17.90;;;10.90;;
72611;SDS011;60655;52.182;4.474;2023-09-07T06:00:49;18.67;;;11.85;;
72611;SDS011;60655;52.182;4.474;2023-09-07T06:02:50;17.75;;;10.68;;
72611;SDS011;60655;52.182;4.474;2023-09-07T06:04:52;18.70;;;11.90;;
72611;SDS011;60655;52.182;4.474;2023-09-07T06:06:53;19.30;;;10.77;;
72611;SDS011;60655;52.182;4.474;2023-09-07T06:08:54;16.70;;;10.55;;
72611;SDS011;60655;52.182;4.474;2023-09-07T06:10:55;16.65;;;10.80;;
72611;SDS011;60655;52.182;4.474;2023-09-07T06:12:56;17.48;;;10.40;;
72611;SDS011;60655;52.182;4.474;2023-09-07T06:14:59;20.00;;;10.23;;
72611;SDS011;60655;52.182;4.474;2023-09-07T06:17:01;17.52;;;11.10;;
72611;SDS011;60655;52.182;4.474;2023-09-07T06:19:02;16.50;;;9.98;;
72611;SDS011;60655;52.182;4.474;2023-09-07T06:21:03;16.25;;;10.25;;
72611;SDS011;60655;52.182;4.474;2023-09-07T06:23:06;18.55;;;10.43;;
72611;SDS011;60655;52.182;4.474;2023-09-07T06:25:07;16.00;;;10.25;;
72611;SDS011;60655;52.182;4.474;2023-09-07T06:27:08;17.10;;;9.70;;
72611;SDS011;60655;52.182;4.474;2023-09-07T06:29:09;20.52;;;10.40;;
72611;SDS011;60655;52.182;4.474;2023-09-07T06:31:10;19.20;;;11.07;;
72611;SDS011;60655;52.182;4.474;2023-09-07T06:33:11;17.35;;;10.70;;
72611;SDS011;60655;52.182;4.474;2023-09-07T06:35:12;17.70;;;10.23;;
72611;SDS011;60655;52.182;4.474;2023-09-07T06:37:13;18.83;;;11.20;;
72611;SDS011;60655;52.182;4.474;2023-09-07T06:39:14;19.50;;;11.23;;
72611;SDS011;60655;52.182;4.474;2023-09-07T06:41:15;18.27;;;9.88;;
72611;SDS011;60655;52.182;4.474;2023-09-07T06:43:16;14.93;;;10.70;;
72611;SDS011;60655;52.182;4.474;2023-09-07T06:45:17;19.83;;;11.10;;
72611;SDS011;60655;52.182;4.474;2023-09-07T06:47:18;16.35;;;9.68;;
72611;SDS011;60655;52.182;4.474;2023-09-07T06:49:19;17.40;;;10.45;;
72611;SDS011;60655;52.182;4.474;2023-09-07T06:51:20;19.48;;;11.13;;
72611;SDS011;60655;52.182;4.474;2023-09-07T06:53:21;17.52;;;10.43;;
72611;SDS011;60655;52.182;4.474;2023-09-07T06:55:22;19.85;;;9.95;;
72611;SDS011;60655;52.182;4.474;2023-09-07T06:57:23;18.85;;;10.38;;
72611;SDS011;60655;52.182;4.474;2023-09-07T06:59:24;17.38;;;10.15;;
72611;SDS011;60655;52.182;4.474;2023-09-07T07:01:25;18.38;;;9.13;;
72611;SDS011;60655;52.182;4.474;2023-09-07T07:03:26;19.25;;;10.02;;
72611;SDS011;60655;52.182;4.474;2023-09-07T07:05:28;15.57;;;9.43;;
72611;SDS011;60655;52.182;4.474;2023-09-07T07:07:30;15.82;;;10.23;;
72611;SDS011;60655;52.182;4.474;2023-09-07T07:09:31;17.73;;;9.57;;
72611;SDS011;60655;52.182;4.474;2023-09-07T07:11:32;20.10;;;11.05;;
72611;SDS011;60655;52.182;4.474;2023-09-07T07:13:33;16.30;;;11.00;;
72611;SDS011;60655;52.182;4.474;2023-09-07T07:15:34;16.38;;;9.80;;
72611;SDS011;60655;52.182;4.474;2023-09-07T07:17:36;13.82;;;8.98;;
72611;SDS011;60655;52.182;4.474;2023-09-07T07:19:37;17.67;;;9.20;;
72611;SDS011;60655;52.182;4.474;2023-09-07T07:21:38;17.20;;;9.68;;
72611;SDS011;60655;52.182;4.474;2023-09-07T07:23:39;15.70;;;10.13;;
72611;SDS011;60655;52.182;4.474;2023-09-07T07:25:40;20.10;;;9.70;;
72611;SDS011;60655;52.182;4.474;2023-09-07T07:27:41;19.23;;;9.75;;
72611;SDS011;60655;52.182;4.474;2023-09-07T07:29:42;16.25;;;9.00;;
72611;SDS011;60655;52.182;4.474;2023-09-07T07:31:43;20.20;;;8.93;;
72611;SDS011;60655;52.182;4.474;2023-09-07T07:33:45;14.85;;;9.15;;
72611;SDS011;60655;52.182;4.474;2023-09-07T07:35:48;17.85;;;8.77;;
72611;SDS011;60655;52.182;4.474;2023-09-07T07:37:49;17.30;;;9.20;;
72611;SDS011;60655;52.182;4.474;2023-09-07T07:39:51;14.13;;;8.02;;
72611;SDS011;60655;52.182;4.474;2023-09-07T07:41:51;16.75;;;9.07;;
72611;SDS011;60655;52.182;4.474;2023-09-07T07:43:52;15.90;;;8.98;;
72611;SDS011;60655;52.182;4.474;2023-09-07T07:45:53;16.77;;;9.38;;
72611;SDS011;60655;52.182;4.474;2023-09-07T07:47:54;18.55;;;9.25;;
72611;SDS011;60655;52.182;4.474;2023-09-07T07:49:55;13.73;;;8.00;;
72611;SDS011;60655;52.182;4.474;2023-09-07T07:51:57;14.05;;;7.78;;
72611;SDS011;60655;52.182;4.474;2023-09-07T07:53:59;14.00;;;8.70;;
72611;SDS011;60655;52.182;4.474;2023-09-07T07:56:00;14.02;;;8.07;;
72611;SDS011;60655;52.182;4.474;2023-09-07T07:58:01;14.60;;;7.85;;
72611;SDS011;60655;52.182;4.474;2023-09-07T08:00:03;15.07;;;8.38;;
72611;SDS011;60655;52.182;4.474;2023-09-07T08:02:06;13.88;;;8.20;;
72611;SDS011;60655;52.182;4.474;2023-09-07T08:04:08;15.25;;;7.38;;
72611;SDS011;60655;52.182;4.474;2023-09-07T08:06:09;17.00;;;8.38;;
72611;SDS011;60655;52.182;4.474;2023-09-07T08:08:11;13.55;;;6.68;;
72611;SDS011;60655;52.182;4.474;2023-09-07T08:10:12;13.38;;;7.80;;
72611;SDS011;60655;52.182;4.474;2023-09-07T08:12:13;13.20;;;6.93;;
72611;SDS011;60655;52.182;4.474;2023-09-07T08:14:14;12.63;;;6.78;;
72611;SDS011;60655;52.182;4.474;2023-09-07T08:16:15;11.82;;;6.90;;
72611;SDS011;60655;52.182;4.474;2023-09-07T08:18:16;11.57;;;7.00;;
72611;SDS011;60655;52.182;4.474;2023-09-07T08:20:17;12.85;;;6.95;;
72611;SDS011;60655;52.182;4.474;2023-09-07T08:22:18;14.30;;;6.80;;
72611;SDS011;60655;52.182;4.474;2023-09-07T08:24:19;12.27;;;7.43;;
72611;SDS011;60655;52.182;4.474;2023-09-07T08:26:20;12.00;;;6.57;;
72611;SDS011;60655;52.182;4.474;2023-09-07T08:28:21;10.30;;;6.40;;
72611;SDS011;60655;52.182;4.474;2023-09-07T08:30:22;12.80;;;7.20;;
72611;SDS011;60655;52.182;4.474;2023-09-07T08:32:25;11.88;;;5.53;;
72611;SDS011;60655;52.182;4.474;2023-09-07T08:34:26;11.32;;;6.53;;
72611;SDS011;60655;52.182;4.474;2023-09-07T08:36:27;13.63;;;6.38;;
72611;SDS011;60655;52.182;4.474;2023-09-07T08:38:29;11.30;;;6.05;;
72611;SDS011;60655;52.182;4.474;2023-09-07T08:40:31;12.85;;;5.43;;
72611;SDS011;60655;52.182;4.474;2023-09-07T08:42:35;11.07;;;6.30;;
72611;SDS011;60655;52.182;4.474;2023-09-07T08:44:37;9.60;;;5.57;;
72611;SDS011;60655;52.182;4.474;2023-09-07T08:46:43;11.40;;;5.30;;
72611;SDS011;60655;52.182;4.474;2023-09-07T08:48:44;12.13;;;6.00;;
72611;SDS011;60655;52.182;4.474;2023-09-07T08:50:47;12.35;;;5.95;;
72611;SDS011;60655;52.182;4.474;2023-09-07T08:52:51;12.27;;;5.72;;
72611;SDS011;60655;52.182;4.474;2023-09-07T08:54:53;10.23;;;5.93;;
72611;SDS011;60655;52.182;4.474;2023-09-07T08:56:56;13.73;;;6.50;;
72611;SDS011;60655;52.182;4.474;2023-09-07T08:58:58;12.93;;;5.80;;
72611;SDS011;60655;52.182;4.474;2023-09-07T09:00:59;10.00;;;5.63;;
72611;SDS011;60655;52.182;4.474;2023-09-07T09:03:00;11.68;;;6.07;;
72611;SDS011;60655;52.182;4.474;2023-09-07T09:05:01;12.40;;;5.57;;
72611;SDS011;60655;52.182;4.474;2023-09-07T09:07:02;11.27;;;6.07;;
72611;SDS011;60655;52.182;4.474;2023-09-07T09:09:04;12.05;;;6.05;;
72611;SDS011;60655;52.182;4.474;2023-09-07T09:11:08;12.15;;;6.35;;
72611;SDS011;60655;52.182;4.474;2023-09-07T09:13:09;12.07;;;5.50;;
72611;SDS011;60655;52.182;4.474;2023-09-07T09:15:11;11.32;;;5.60;;
72611;SDS011;60655;52.182;4.474;2023-09-07T09:17:13;11.30;;;6.18;;
72611;SDS011;60655;52.182;4.474;2023-09-07T09:19:15;10.05;;;6.10;;
72611;SDS011;60655;52.182;4.474;2023-09-07T09:21:16;14.30;;;5.47;;
72611;SDS011;60655;52.182;4.474;2023-09-07T09:23:17;11.15;;;5.55;;
72611;SDS011;60655;52.182;4.474;2023-09-07T09:25:18;11.18;;;5.18;;
72611;SDS011;60655;52.182;4.474;2023-09-07T09:27:20;12.35;;;4.93;;
72611;SDS011;60655;52.182;4.474;2023-09-07T09:29:21;9.52;;;4.70;;
72611;SDS011;60655;52.182;4.474;2023-09-07T09:31:24;9.70;;;5.25;;
72611;SDS011;60655;52.182;4.474;2023-09-07T09:33:25;9.70;;;4.85;;
72611;SDS011;60655;52.182;4.474;2023-09-07T09:35:26;11.07;;;4.30;;
72611;SDS011;60655;52.182;4.474;2023-09-07T09:37:27;10.18;;;4.63;;
72611;SDS011;60655;52.182;4.474;2023-09-07T09:39:29;10.15;;;4.53;;
72611;SDS011;60655;52.182;4.474;2023-09-07T09:41:31;9.18;;;4.05;;
72611;SDS011;60655;52.182;4.474;2023-09-07T09:43:34;11.70;;;4.30;;
72611;SDS011;60655;52.182;4.474;2023-09-07T09:45:35;7.35;;;4.30;;
72611;SDS011;60655;52.182;4.474;2023-09-07T09:47:40;9.40;;;4.45;;
72611;SDS011;60655;52.182;4.474;2023-09-07T09:49:42;11.13;;;4.95;;
72611;SDS011;60655;52.182;4.474;2023-09-07T09:51:44;8.75;;;4.50;;
72611;SDS011;60655;52.182;4.474;2023-09-07T09:53:46;10.23;;;4.72;;
72611;SDS011;60655;52.182;4.474;2023-09-07T09:55:47;10.85;;;4.25;;
72611;SDS011;60655;52.182;4.474;2023-09-07T09:57:49;12.38;;;4.15;;
72611;SDS011;60655;52.182;4.474;2023-09-07T09:59:51;8.63;;;4.32;;
72611;SDS011;60655;52.182;4.474;2023-09-07T10:01:52;11.05;;;4.63;;
72611;SDS011;60655;52.182;4.474;2023-09-07T10:03:55;9.43;;;3.95;;
72611;SDS011;60655;52.182;4.474;2023-09-07T10:06:10;10.77;;;4.32;;
72611;SDS011;60655;52.182;4.474;2023-09-07T10:08:12;9.07;;;3.60;;
72611;SDS011;60655;52.182;4.474;2023-09-07T10:10:15;10.00;;;4.47;;
72611;SDS011;60655;52.182;4.474;2023-09-07T10:12:18;11.60;;;4.70;;
72611;SDS011;60655;52.182;4.474;2023-09-07T10:14:37;8.55;;;4.28;;
72611;SDS011;60655;52.182;4.474;2023-09-07T10:16:42;6.30;;;3.50;;
72611;SDS011;60655;52.182;4.474;2023-09-07T10:18:47;8.35;;;4.15;;
72611;SDS011;60655;52.182;4.474;2023-09-07T10:23:02;8.85;;;3.80;;
72611;SDS011;60655;52.182;4.474;2023-09-07T10:25:04;8.27;;;4.20;;
72611;SDS011;60655;52.182;4.474;2023-09-07T10:27:08;9.00;;;4.18;;
72611;SDS011;60655;52.182;4.474;2023-09-07T10:29:11;7.80;;;3.80;;
72611;SDS011;60655;52.182;4.474;2023-09-07T10:31:18;8.18;;;4.10;;
72611;SDS011;60655;52.182;4.474;2023-09-07T10:33:21;7.10;;;3.63;;
72611;SDS011;60655;52.182;4.474;2023-09-07T10:35:22;8.25;;;3.38;;
72611;SDS011;60655;52.182;4.474;2023-09-07T10:37:27;8.88;;;3.45;;
72611;SDS011;60655;52.182;4.474;2023-09-07T10:39:32;10.98;;;3.92;;
72611;SDS011;60655;52.182;4.474;2023-09-07T10:41:42;9.10;;;3.90;;
72611;SDS011;60655;52.182;4.474;2023-09-07T10:43:51;6.35;;;3.05;;
72611;SDS011;60655;52.182;4.474;2023-09-07T10:45:54;12.38;;;4.25;;
72611;SDS011;60655;52.182;4.474;2023-09-07T10:47:56;7.43;;;3.88;;
72611;SDS011;60655;52.182;4.474;2023-09-07T10:49:57;6.95;;;3.60;;
72611;SDS011;60655;52.182;4.474;2023-09-07T10:51:58;10.75;;;3.45;;
72611;SDS011;60655;52.182;4.474;2023-09-07T10:53:59;7.63;;;2.90;;
72611;SDS011;60655;52.182;4.474;2023-09-07T10:56:04;6.50;;;3.63;;
72611;SDS011;60655;52.182;4.474;2023-09-07T10:58:06;6.63;;;3.50;;
72611;SDS011;60655;52.182;4.474;2023-09-07T11:00:09;7.22;;;3.50;;
72611;SDS011;60655;52.182;4.474;2023-09-07T11:02:12;8.85;;;3.70;;
72611;SDS011;60655;52.182;4.474;2023-09-07T11:04:13;7.45;;;3.20;;
72611;SDS011;60655;52.182;4.474;2023-09-07T11:06:15;6.88;;;3.20;;
72611;SDS011;60655;52.182;4.474;2023-09-07T11:08:21;6.97;;;3.80;;
72611;SDS011;60655;52.182;4.474;2023-09-07T11:10:22;9.25;;;3.10;;
72611;SDS011;60655;52.182;4.474;2023-09-07T11:12:23;7.60;;;3.03;;
72611;SDS011;60655;52.182;4.474;2023-09-07T11:14:28;6.32;;;3.40;;
72611;SDS011;60655;52.182;4.474;2023-09-07T11:16:30;9.75;;;3.22;;
72611;SDS011;60655;52.182;4.474;2023-09-07T11:18:31;6.47;;;3.30;;
72611;SDS011;60655;52.182;4.474;2023-09-07T11:20:36;13.35;;;3.67;;
72611;SDS011;60655;52.182;4.474;2023-09-07T11:22:40;6.63;;;3.10;;
72611;SDS011;60655;52.182;4.474;2023-09-07T11:24:42;7.05;;;3.58;;
72611;SDS011;60655;52.182;4.474;2023-09-07T11:26:43;9.27;;;3.55;;
72611;SDS011;60655;52.182;4.474;2023-09-07T11:28:46;6.93;;;3.30;;
72611;SDS011;60655;52.182;4.474;2023-09-07T11:30:51;7.03;;;3.13;;
72611;SDS011;60655;52.182;4.474;2023-09-07T11:33:00;7.68;;;3.17;;
72611;SDS011;60655;52.182;4.474;2023-09-07T11:35:01;8.10;;;3.83;;
72611;SDS011;60655;52.182;4.474;2023-09-07T11:37:03;8.40;;;3.47;;
72611;SDS011;60655;52.182;4.474;2023-09-07T11:39:04;11.35;;;4.57;;
72611;SDS011;60655;52.182;4.474;2023-09-07T11:41:14;8.18;;;3.30;;
72611;SDS011;60655;52.182;4.474;2023-09-07T11:43:16;7.43;;;3.17;;
72611;SDS011;60655;52.182;4.474;2023-09-07T11:45:20;8.98;;;3.40;;
72611;SDS011;60655;52.182;4.474;2023-09-07T11:47:21;9.77;;;3.13;;
72611;SDS011;60655;52.182;4.474;2023-09-07T11:49:22;6.93;;;3.05;;
72611;SDS011;60655;52.182;4.474;2023-09-07T11:51:25;6.72;;;3.47;;
72611;SDS011;60655;52.182;4.474;2023-09-07T11:53:26;8.10;;;3.30;;
72611;SDS011;60655;52.182;4.474;2023-09-07T11:55:27;9.18;;;3.33;;
72611;SDS011;60655;52.182;4.474;2023-09-07T11:57:28;7.13;;;3.22;;
72611;SDS011;60655;52.182;4.474;2023-09-07T11:59:29;7.50;;;3.53;;
72611;SDS011;60655;52.182;4.474;2023-09-07T12:01:30;7.70;;;2.92;;
72611;SDS011;60655;52.182;4.474;2023-09-07T12:03:31;6.57;;;3.40;;
72611;SDS011;60655;52.182;4.474;2023-09-07T12:05:33;6.85;;;3.08;;